sensor_id;sensor_type;location;lat;lon;timestamp;pressure;altitude;pressure_sealevel;temperature
45701;BMP280;36277;32.852;-116.998;2023-11-19T00:00:57;100217.75;;;24.09
45701;BMP280;36277;32.852;-116.998;2023-11-19T00:03:24;100215.22;;;23.93
45701;BMP280;36277;32.852;-116.998;2023-11-19T00:05:50;100216.13;;;23.86
45701;BMP280;36277;32.852;-116.998;2023-11-19T00:08:16;100211.25;;;23.73
45701;BMP280;36277;32.852;-116.998;2023-11-19T00:10:42;100224.38;;;23.71
45701;BMP280;36277;32.852;-116.998;2023-11-19T00:13:09;100220.19;;;23.75
45701;BMP280;36277;32.852;-116.998;2023-11-19T00:15:36;100213.97;;;23.81
45701;BMP280;36277;32.852;-116.998;2023-11-19T00:18:02;100219.69;;;23.94
45701;BMP280;36277;32.852;-116.998;2023-11-19T00:20:31;100227.16;;;24.00
45701;BMP280;36277;32.852;-116.998;2023-11-19T00:22:58;100215.66;;;24.11
45701;BMP280;36277;32.852;-116.998;2023-11-19T00:25:24;100213.88;;;24.18
45701;BMP280;36277;32.852;-116.998;2023-11-19T00:27:51;100222.38;;;24.23
45701;BMP280;36277;32.852;-116.998;2023-11-19T00:30:19;100235.41;;;24.29
45701;BMP280;36277;32.852;-116.998;2023-11-19T00:32:45;100239.50;;;24.33
45701;BMP280;36277;32.852;-116.998;2023-11-19T00:35:12;100236.16;;;24.37
45701;BMP280;36277;32.852;-116.998;2023-11-19T00:37:39;100231.31;;;24.39
45701;BMP280;36277;32.852;-116.998;2023-11-19T00:40:08;100234.00;;;24.47
45701;BMP280;36277;32.852;-116.998;2023-11-19T00:42:36;100233.88;;;24.55
45701;BMP280;36277;32.852;-116.998;2023-11-19T00:45:02;100240.91;;;24.58
45701;BMP280;36277;32.852;-116.998;2023-11-19T00:47:29;100242.41;;;24.60
45701;BMP280;36277;32.852;-116.998;2023-11-19T00:49:56;100239.75;;;24.67
45701;BMP280;36277;32.852;-116.998;2023-11-19T00:52:23;100250.97;;;24.65
45701;BMP280;36277;32.852;-116.998;2023-11-19T00:54:49;100253.56;;;24.67
45701;BMP280;36277;32.852;-116.998;2023-11-19T00:57:15;100268.47;;;24.72
45701;BMP280;36277;32.852;-116.998;2023-11-19T00:59:42;100283.59;;;24.76
45701;BMP280;36277;32.852;-116.998;2023-11-19T01:02:08;100281.50;;;24.78
45701;BMP280;36277;32.852;-116.998;2023-11-19T01:04:35;100279.78;;;24.77
45701;BMP280;36277;32.852;-116.998;2023-11-19T01:07:05;100286.06;;;24.86
45701;BMP280;36277;32.852;-116.998;2023-11-19T01:09:32;100290.91;;;24.84
45701;BMP280;36277;32.852;-116.998;2023-11-19T01:12:01;100297.38;;;24.91
45701;BMP280;36277;32.852;-116.998;2023-11-19T01:14:27;100298.41;;;24.90
45701;BMP280;36277;32.852;-116.998;2023-11-19T01:16:54;100314.31;;;24.88
45701;BMP280;36277;32.852;-116.998;2023-11-19T01:19:24;100316.31;;;24.94
45701;BMP280;36277;32.852;-116.998;2023-11-19T01:21:50;100318.03;;;24.95
45701;BMP280;36277;32.852;-116.998;2023-11-19T01:24:17;100322.50;;;24.96
45701;BMP280;36277;32.852;-116.998;2023-11-19T01:26:44;100323.72;;;24.93
45701;BMP280;36277;32.852;-116.998;2023-11-19T01:29:16;100334.84;;;25.00
45701;BMP280;36277;32.852;-116.998;2023-11-19T01:31:45;100326.56;;;25.00
45701;BMP280;36277;32.852;-116.998;2023-11-19T01:34:12;100329.97;;;25.02
45701;BMP280;36277;32.852;-116.998;2023-11-19T01:36:38;100333.63;;;25.02
45701;BMP280;36277;32.852;-116.998;2023-11-19T01:39:05;100336.53;;;25.01
45701;BMP280;36277;32.852;-116.998;2023-11-19T01:41:35;100340.84;;;25.03
45701;BMP280;36277;32.852;-116.998;2023-11-19T01:44:02;100339.97;;;25.03
45701;BMP280;36277;32.852;-116.998;2023-11-19T01:46:29;100338.75;;;25.05
45701;BMP280;36277;32.852;-116.998;2023-11-19T01:48:55;100347.41;;;25.02
45701;BMP280;36277;32.852;-116.998;2023-11-19T01:51:22;100349.88;;;25.12
45701;BMP280;36277;32.852;-116.998;2023-11-19T01:53:49;100343.28;;;25.13
45701;BMP280;36277;32.852;-116.998;2023-11-19T01:56:16;100343.28;;;25.13
45701;BMP280;36277;32.852;-116.998;2023-11-19T01:58:44;100341.38;;;25.13
45701;BMP280;36277;32.852;-116.998;2023-11-19T02:01:12;100343.47;;;25.11
45701;BMP280;36277;32.852;-116.998;2023-11-19T02:03:39;100339.66;;;25.12
45701;BMP280;36277;32.852;-116.998;2023-11-19T02:06:06;100332.25;;;25.13
45701;BMP280;36277;32.852;-116.998;2023-11-19T02:08:33;100338.16;;;25.10
45701;BMP280;36277;32.852;-116.998;2023-11-19T02:11:00;100341.56;;;25.12
45701;BMP280;36277;32.852;-116.998;2023-11-19T02:13:26;100335.84;;;25.13
45701;BMP280;36277;32.852;-116.998;2023-11-19T02:15:54;100339.97;;;25.17
45701;BMP280;36277;32.852;-116.998;2023-11-19T02:18:25;100335.31;;;25.18
45701;BMP280;36277;32.852;-116.998;2023-11-19T02:20:58;100335.50;;;25.16
45701;BMP280;36277;32.852;-116.998;2023-11-19T02:23:27;100337.03;;;25.19
45701;BMP280;36277;32.852;-116.998;2023-11-19T02:26:18;100334.25;;;25.19
45701;BMP280;36277;32.852;-116.998;2023-11-19T02:28:47;100350.56;;;25.14
45701;BMP280;36277;32.852;-116.998;2023-11-19T02:31:13;100344.66;;;25.17
45701;BMP280;36277;32.852;-116.998;2023-11-19T02:33:40;100343.28;;;25.13
45701;BMP280;36277;32.852;-116.998;2023-11-19T02:36:07;100342.28;;;25.14
45701;BMP280;36277;32.852;-116.998;2023-11-19T02:38:34;100361.22;;;25.17
45701;BMP280;36277;32.852;-116.998;2023-11-19T02:41:04;100358.53;;;25.23
45701;BMP280;36277;32.852;-116.998;2023-11-19T02:43:32;100358.72;;;25.22
45701;BMP280;36277;32.852;-116.998;2023-11-19T02:46:02;100356.16;;;25.20
45701;BMP280;36277;32.852;-116.998;2023-11-19T02:48:30;100359.78;;;25.21
45701;BMP280;36277;32.852;-116.998;2023-11-19T02:50:56;100363.78;;;25.18
45701;BMP280;36277;32.852;-116.998;2023-11-19T02:53:24;100360.63;;;25.21
45701;BMP280;36277;32.852;-116.998;2023-11-19T02:55:53;100359.78;;;25.21
45701;BMP280;36277;32.852;-116.998;2023-11-19T02:58:19;100358.72;;;25.22
45701;BMP280;36277;32.852;-116.998;2023-11-19T03:00:46;100363.00;;;25.24
45701;BMP280;36277;32.852;-116.998;2023-11-19T03:03:26;100367.03;;;25.22
45701;BMP280;36277;32.852;-116.998;2023-11-19T03:06:07;100374.25;;;25.23
45701;BMP280;36277;32.852;-116.998;2023-11-19T03:08:36;100373.19;;;25.24
45701;BMP280;36277;32.852;-116.998;2023-11-19T03:11:02;100378.91;;;25.22
45701;BMP280;36277;32.852;-116.998;2023-11-19T03:13:30;100391.69;;;25.23
45701;BMP280;36277;32.852;-116.998;2023-11-19T03:15:56;100389.13;;;25.22
45701;BMP280;36277;32.852;-116.998;2023-11-19T03:18:23;100392.50;;;25.24
45701;BMP280;36277;32.852;-116.998;2023-11-19T03:20:49;100386.81;;;25.25
45701;BMP280;36277;32.852;-116.998;2023-11-19T03:23:15;100393.19;;;25.26
45701;BMP280;36277;32.852;-116.998;2023-11-19T03:25:41;100389.56;;;25.25
45701;BMP280;36277;32.852;-116.998;2023-11-19T03:28:09;100385.75;;;25.26
45701;BMP280;36277;32.852;-116.998;2023-11-19T03:30:37;100384.88;;;25.26
45701;BMP280;36277;32.852;-116.998;2023-11-19T03:33:03;100381.06;;;25.27
45701;BMP280;36277;32.852;-116.998;2023-11-19T03:35:30;100377.47;;;25.26
45701;BMP280;36277;32.852;-116.998;2023-11-19T03:37:56;100377.66;;;25.25
45701;BMP280;36277;32.852;-116.998;2023-11-19T03:40:22;100389.19;;;25.28
45701;BMP280;36277;32.852;-116.998;2023-11-19T03:42:50;100384.50;;;25.28
45701;BMP280;36277;32.852;-116.998;2023-11-19T03:45:17;100387.94;;;25.30
45701;BMP280;36277;32.852;-116.998;2023-11-19T03:47:43;100398.16;;;25.30
45701;BMP280;36277;32.852;-116.998;2023-11-19T03:50:09;100394.50;;;25.29
45701;BMP280;36277;32.852;-116.998;2023-11-19T03:52:36;100388.97;;;25.29
45701;BMP280;36277;32.852;-116.998;2023-11-19T03:55:02;100391.09;;;25.27
45701;BMP280;36277;32.852;-116.998;2023-11-19T03:57:31;100408.72;;;25.27
45701;BMP280;36277;32.852;-116.998;2023-11-19T03:59:57;100408.72;;;25.27
45701;BMP280;36277;32.852;-116.998;2023-11-19T04:02:24;100416.31;;;25.25
45701;BMP280;36277;32.852;-116.998;2023-11-19T04:04:54;100417.00;;;25.27
45701;BMP280;36277;32.852;-116.998;2023-11-19T04:07:21;100412.13;;;25.28
45701;BMP280;36277;32.852;-116.998;2023-11-19T04:09:47;100421.47;;;25.27
45701;BMP280;36277;32.852;-116.998;2023-11-19T04:12:13;100429.09;;;25.26
45701;BMP280;36277;32.852;-116.998;2023-11-19T04:14:39;100413.31;;;25.20
45701;BMP280;36277;32.852;-116.998;2023-11-19T04:17:06;100424.75;;;25.17
45701;BMP280;36277;32.852;-116.998;2023-11-19T04:19:32;100413.88;;;25.15
45701;BMP280;36277;32.852;-116.998;2023-11-19T04:21:58;100417.53;;;25.16
45701;BMP280;36277;32.852;-116.998;2023-11-19T04:24:25;100420.44;;;25.14
45701;BMP280;36277;32.852;-116.998;2023-11-19T04:26:51;100427.78;;;25.22
45701;BMP280;36277;32.852;-116.998;2023-11-19T04:29:18;100425.03;;;25.22
45701;BMP280;36277;32.852;-116.998;2023-11-19T04:31:45;100427.78;;;25.22
45701;BMP280;36277;32.852;-116.998;2023-11-19T04:34:12;100422.44;;;25.20
45701;BMP280;36277;32.852;-116.998;2023-11-19T04:36:38;100416.75;;;25.22
45701;BMP280;36277;32.852;-116.998;2023-11-19T04:39:05;100417.59;;;25.22
45701;BMP280;36277;32.852;-116.998;2023-11-19T04:41:35;100421.41;;;25.21
45701;BMP280;36277;32.852;-116.998;2023-11-19T04:44:02;100427.78;;;25.22
45701;BMP280;36277;32.852;-116.998;2023-11-19T04:46:28;100417.78;;;25.21
45701;BMP280;36277;32.852;-116.998;2023-11-19T04:48:55;100420.06;;;25.17
45701;BMP280;36277;32.852;-116.998;2023-11-19T04:51:21;100417.59;;;25.22
45701;BMP280;36277;32.852;-116.998;2023-11-19T04:53:48;100422.66;;;25.19
45701;BMP280;36277;32.852;-116.998;2023-11-19T04:56:14;100430.28;;;25.17
45701;BMP280;36277;32.852;-116.998;2023-11-19T04:58:42;100437.19;;;25.13
45701;BMP280;36277;32.852;-116.998;2023-11-19T05:01:13;100438.34;;;25.18
45701;BMP280;36277;32.852;-116.998;2023-11-19T05:03:42;100435.13;;;25.15
45701;BMP280;36277;32.852;-116.998;2023-11-19T05:06:08;100434.44;;;25.13
45701;BMP280;36277;32.852;-116.998;2023-11-19T05:08:35;100438.56;;;25.17
45701;BMP280;36277;32.852;-116.998;2023-11-19T05:11:02;100445.13;;;25.16
45701;BMP280;36277;32.852;-116.998;2023-11-19T05:13:29;100437.91;;;25.15
45701;BMP280;36277;32.852;-116.998;2023-11-19T05:15:55;100460.34;;;25.12
45701;BMP280;36277;32.852;-116.998;2023-11-19T05:18:21;100460.34;;;25.12
45701;BMP280;36277;32.852;-116.998;2023-11-19T05:20:47;100460.34;;;25.12
45701;BMP280;36277;32.852;-116.998;2023-11-19T05:23:14;100456.06;;;25.09
45701;BMP280;36277;32.852;-116.998;2023-11-19T05:25:40;100460.34;;;25.12
45701;BMP280;36277;32.852;-116.998;2023-11-19T05:28:06;100480.28;;;25.07
45701;BMP280;36277;32.852;-116.998;2023-11-19T05:30:32;100484.91;;;25.07
45701;BMP280;36277;32.852;-116.998;2023-11-19T05:32:58;100482.38;;;25.05
45701;BMP280;36277;32.852;-116.998;2023-11-19T05:35:26;100484.34;;;25.11
45701;BMP280;36277;32.852;-116.998;2023-11-19T05:37:52;100478.06;;;25.03
45701;BMP280;36277;32.852;-116.998;2023-11-19T05:40:19;100481.78;;;25.10
45701;BMP280;36277;32.852;-116.998;2023-11-19T05:42:46;100477.69;;;25.06
45701;BMP280;36277;32.852;-116.998;2023-11-19T05:45:12;100464.47;;;25.01
45701;BMP280;36277;32.852;-116.998;2023-11-19T05:47:38;100451.22;;;24.97
45701;BMP280;36277;32.852;-116.998;2023-11-19T05:50:05;100458.94;;;25.01
45701;BMP280;36277;32.852;-116.998;2023-11-19T05:52:32;100459.09;;;25.00
45701;BMP280;36277;32.852;-116.998;2023-11-19T05:55:00;100453.41;;;25.01
45701;BMP280;36277;32.852;-116.998;2023-11-19T05:57:30;100455.28;;;25.01
45701;BMP280;36277;32.852;-116.998;2023-11-19T05:59:56;100460.34;;;24.97
45701;BMP280;36277;32.852;-116.998;2023-11-19T06:02:24;100455.50;;;24.99
45701;BMP280;36277;32.852;-116.998;2023-11-19T06:04:53;100460.34;;;24.97
45701;BMP280;36277;32.852;-116.998;2023-11-19T06:07:19;100465.03;;;24.97
45701;BMP280;36277;32.852;-116.998;2023-11-19T06:09:45;100471.63;;;24.96
45701;BMP280;36277;32.852;-116.998;2023-11-19T06:12:12;100461.78;;;24.93
45701;BMP280;36277;32.852;-116.998;2023-11-19T06:14:40;100457.13;;;24.94
45701;BMP280;36277;32.852;-116.998;2023-11-19T06:17:06;100452.66;;;24.93
45701;BMP280;36277;32.852;-116.998;2023-11-19T06:19:34;100460.44;;;24.89
45701;BMP280;36277;32.852;-116.998;2023-11-19T06:22:00;100455.59;;;24.91
45701;BMP280;36277;32.852;-116.998;2023-11-19T06:24:26;100455.81;;;24.90
45701;BMP280;36277;32.852;-116.998;2023-11-19T06:26:53;100462.06;;;24.84
45701;BMP280;36277;32.852;-116.998;2023-11-19T06:29:19;100465.31;;;24.87
45701;BMP280;36277;32.852;-116.998;2023-11-19T06:31:46;100470.16;;;24.85
45701;BMP280;36277;32.852;-116.998;2023-11-19T06:34:14;100469.09;;;24.86
45701;BMP280;36277;32.852;-116.998;2023-11-19T06:36:41;100465.13;;;24.89
45701;BMP280;36277;32.852;-116.998;2023-11-19T06:39:09;100467.59;;;24.84
45701;BMP280;36277;32.852;-116.998;2023-11-19T06:41:36;100471.41;;;24.83
45701;BMP280;36277;32.852;-116.998;2023-11-19T06:44:06;100464.16;;;24.82
45701;BMP280;36277;32.852;-116.998;2023-11-19T06:46:32;100462.75;;;24.86
45701;BMP280;36277;32.852;-116.998;2023-11-19T06:48:58;100462.06;;;24.84
45701;BMP280;36277;32.852;-116.998;2023-11-19T06:51:25;100451.03;;;24.84
45701;BMP280;36277;32.852;-116.998;2023-11-19T06:53:52;100440.75;;;24.78
45701;BMP280;36277;32.852;-116.998;2023-11-19T06:56:22;100442.53;;;24.85
45701;BMP280;36277;32.852;-116.998;2023-11-19T06:58:50;100440.38;;;24.81
45701;BMP280;36277;32.852;-116.998;2023-11-19T07:01:17;100423.81;;;24.81
45701;BMP280;36277;32.852;-116.998;2023-11-19T07:03:47;100417.63;;;24.79
45701;BMP280;36277;32.852;-116.998;2023-11-19T07:06:13;100408.28;;;24.80
45701;BMP280;36277;32.852;-116.998;2023-11-19T07:08:42;100398.78;;;24.82
45701;BMP280;36277;32.852;-116.998;2023-11-19T07:11:13;100399.72;;;24.75
45701;BMP280;36277;32.852;-116.998;2023-11-19T07:13:42;100398.66;;;24.76
45701;BMP280;36277;32.852;-116.998;2023-11-19T07:16:09;100391.44;;;24.75
45701;BMP280;36277;32.852;-116.998;2023-11-19T07:18:38;100399.94;;;24.73
45701;BMP280;36277;32.852;-116.998;2023-11-19T07:21:05;100392.47;;;24.74
45701;BMP280;36277;32.852;-116.998;2023-11-19T07:23:31;100398.66;;;24.76
45701;BMP280;36277;32.852;-116.998;2023-11-19T07:25:58;100399.06;;;24.73
45701;BMP280;36277;32.852;-116.998;2023-11-19T07:28:25;100395.44;;;24.72
45701;BMP280;36277;32.852;-116.998;2023-11-19T07:30:51;100397.75;;;24.69
45701;BMP280;36277;32.852;-116.998;2023-11-19T07:33:17;100401.19;;;24.71
45701;BMP280;36277;32.852;-116.998;2023-11-19T07:35:43;100411.34;;;24.70
45701;BMP280;36277;32.852;-116.998;2023-11-19T07:38:10;100410.50;;;24.70
45701;BMP280;36277;32.852;-116.998;2023-11-19T07:40:36;100411.16;;;24.72
45701;BMP280;36277;32.852;-116.998;2023-11-19T07:43:02;100421.91;;;24.67
45701;BMP280;36277;32.852;-116.998;2023-11-19T07:45:28;100408.78;;;24.69
45701;BMP280;36277;32.852;-116.998;2023-11-19T07:47:55;100409.84;;;24.68
45701;BMP280;36277;32.852;-116.998;2023-11-19T07:50:21;100415.06;;;24.63
45701;BMP280;36277;32.852;-116.998;2023-11-19T07:52:47;100425.72;;;24.66
45701;BMP280;36277;32.852;-116.998;2023-11-19T07:55:13;100424.00;;;24.65
45701;BMP280;36277;32.852;-116.998;2023-11-19T07:57:39;100415.06;;;24.63
45701;BMP280;36277;32.852;-116.998;2023-11-19T08:00:06;100422.97;;;24.66
45701;BMP280;36277;32.852;-116.998;2023-11-19T08:02:32;100429.25;;;24.60
45701;BMP280;36277;32.852;-116.998;2023-11-19T08:04:59;100429.91;;;24.62
45701;BMP280;36277;32.852;-116.998;2023-11-19T08:07:25;100433.88;;;24.59
45701;BMP280;36277;32.852;-116.998;2023-11-19T08:09:52;100443.88;;;24.60
45701;BMP280;36277;32.852;-116.998;2023-11-19T08:12:18;100439.16;;;24.54
45701;BMP280;36277;32.852;-116.998;2023-11-19T08:14:45;100439.81;;;24.56
45701;BMP280;36277;32.852;-116.998;2023-11-19T08:17:11;100440.28;;;24.60
45701;BMP280;36277;32.852;-116.998;2023-11-19T08:19:37;100435.81;;;24.59
45701;BMP280;36277;32.852;-116.998;2023-11-19T08:22:03;100431.41;;;24.50
45701;BMP280;36277;32.852;-116.998;2023-11-19T08:24:29;100436.75;;;24.51
45701;BMP280;36277;32.852;-116.998;2023-11-19T08:26:56;100441.22;;;24.52
45701;BMP280;36277;32.852;-116.998;2023-11-19T08:29:22;100444.00;;;24.52
45701;BMP280;36277;32.852;-116.998;2023-11-19T08:31:48;100443.50;;;24.49
45701;BMP280;36277;32.852;-116.998;2023-11-19T08:34:14;100439.03;;;24.48
45701;BMP280;36277;32.852;-116.998;2023-11-19T08:36:41;100439.03;;;24.48
45701;BMP280;36277;32.852;-116.998;2023-11-19T08:39:07;100438.66;;;24.51
45701;BMP280;36277;32.852;-116.998;2023-11-19T08:41:34;100447.59;;;24.53
45701;BMP280;36277;32.852;-116.998;2023-11-19T08:44:00;100444.53;;;24.48
45701;BMP280;36277;32.852;-116.998;2023-11-19T08:46:27;100446.78;;;24.44
45701;BMP280;36277;32.852;-116.998;2023-11-19T08:48:53;100450.44;;;24.45
45701;BMP280;36277;32.852;-116.998;2023-11-19T08:51:23;100468.53;;;24.47
45701;BMP280;36277;32.852;-116.998;2023-11-19T08:53:50;100468.69;;;24.46
45701;BMP280;36277;32.852;-116.998;2023-11-19T08:56:16;100466.78;;;24.46
45701;BMP280;36277;32.852;-116.998;2023-11-19T08:58:42;100468.19;;;24.42
45701;BMP280;36277;32.852;-116.998;2023-11-19T09:01:09;100479.56;;;24.47
45701;BMP280;36277;32.852;-116.998;2023-11-19T09:03:35;100487.34;;;24.44
45701;BMP280;36277;32.852;-116.998;2023-11-19T09:06:02;100489.44;;;24.42
45701;BMP280;36277;32.852;-116.998;2023-11-19T09:08:29;100492.19;;;24.42
45701;BMP280;36277;32.852;-116.998;2023-11-19T09:10:55;100490.53;;;24.33
45701;BMP280;36277;32.852;-116.998;2023-11-19T09:13:21;100489.78;;;24.39
45701;BMP280;36277;32.852;-116.998;2023-11-19T09:15:48;100502.56;;;24.40
45701;BMP280;36277;32.852;-116.998;2023-11-19T09:18:14;100504.63;;;24.38
45701;BMP280;36277;32.852;-116.998;2023-11-19T09:20:41;100506.72;;;24.36
45701;BMP280;36277;32.852;-116.998;2023-11-19T09:23:07;100505.09;;;24.41
45701;BMP280;36277;32.852;-116.998;2023-11-19T09:25:34;100505.31;;;24.40
45701;BMP280;36277;32.852;-116.998;2023-11-19T09:28:01;100496.94;;;24.33
45701;BMP280;36277;32.852;-116.998;2023-11-19T09:30:27;100502.63;;;24.32
45701;BMP280;36277;32.852;-116.998;2023-11-19T09:32:53;100493.09;;;24.34
45701;BMP280;36277;32.852;-116.998;2023-11-19T09:35:19;100490.53;;;24.33
45701;BMP280;36277;32.852;-116.998;2023-11-19T09:37:46;100501.19;;;24.36
45701;BMP280;36277;32.852;-116.998;2023-11-19T09:40:12;100500.84;;;24.39
45701;BMP280;36277;32.852;-116.998;2023-11-19T09:42:48;100496.94;;;24.33
45701;BMP280;36277;32.852;-116.998;2023-11-19T09:45:16;100500.22;;;24.29
45701;BMP280;36277;32.852;-116.998;2023-11-19T09:47:46;100506.03;;;24.34
45701;BMP280;36277;32.852;-116.998;2023-11-19T09:50:19;100497.78;;;24.34
45701;BMP280;36277;32.852;-116.998;2023-11-19T09:52:47;100494.25;;;24.25
45701;BMP280;36277;32.852;-116.998;2023-11-19T09:55:14;100479.50;;;24.33
45701;BMP280;36277;32.852;-116.998;2023-11-19T09:57:41;100481.13;;;24.27
45701;BMP280;36277;32.852;-116.998;2023-11-19T10:00:08;100496.63;;;24.28
45701;BMP280;36277;32.852;-116.998;2023-11-19T10:02:37;100487.00;;;24.24
45701;BMP280;36277;32.852;-116.998;2023-11-19T10:05:06;100471.78;;;24.28
45701;BMP280;36277;32.852;-116.998;2023-11-19T10:07:34;100481.78;;;24.29
45701;BMP280;36277;32.852;-116.998;2023-11-19T10:10:02;100489.56;;;24.26
45701;BMP280;36277;32.852;-116.998;2023-11-19T10:12:30;100495.44;;;24.23
45701;BMP280;36277;32.852;-116.998;2023-11-19T10:16:11;100499.03;;;25.26
45701;BMP280;36277;32.852;-116.998;2023-11-19T10:18:44;100499.06;;;24.60
45701;BMP280;36277;32.852;-116.998;2023-11-19T10:21:12;100491.97;;;24.43
45701;BMP280;36277;32.852;-116.998;2023-11-19T10:23:50;100494.06;;;24.41
45701;BMP280;36277;32.852;-116.998;2023-11-19T10:26:18;100504.69;;;24.30
45701;BMP280;36277;32.852;-116.998;2023-11-19T10:28:49;100503.66;;;24.31
45701;BMP280;36277;32.852;-116.998;2023-11-19T10:31:17;100507.47;;;24.30
45701;BMP280;36277;32.852;-116.998;2023-11-19T10:33:44;100504.03;;;24.28
45701;BMP280;36277;32.852;-116.998;2023-11-19T10:36:12;100485.75;;;24.27
45701;BMP280;36277;32.852;-116.998;2023-11-19T10:38:39;100474.41;;;24.22
45701;BMP280;36277;32.852;-116.998;2023-11-19T10:41:06;100463.38;;;24.22
45701;BMP280;36277;32.852;-116.998;2023-11-19T10:43:45;100463.31;;;24.30
45701;BMP280;36277;32.852;-116.998;2023-11-19T10:46:12;100463.59;;;24.20
45701;BMP280;36277;32.852;-116.998;2023-11-19T10:48:39;100461.88;;;24.19
45701;BMP280;36277;32.852;-116.998;2023-11-19T10:51:06;100462.75;;;24.20
45701;BMP280;36277;32.852;-116.998;2023-11-19T10:53:38;100458.53;;;24.24
45701;BMP280;36277;32.852;-116.998;2023-11-19T10:56:11;100452.19;;;24.23
45701;BMP280;36277;32.852;-116.998;2023-11-19T10:58:37;100441.41;;;24.14
45701;BMP280;36277;32.852;-116.998;2023-11-19T11:01:13;100435.81;;;24.22
45701;BMP280;36277;32.852;-116.998;2023-11-19T11:03:42;100439.72;;;24.13
45701;BMP280;36277;32.852;-116.998;2023-11-19T11:06:13;100441.41;;;24.14
45701;BMP280;36277;32.852;-116.998;2023-11-19T11:08:40;100429.88;;;24.11
45701;BMP280;36277;32.852;-116.998;2023-11-19T11:11:07;100429.50;;;24.13
45701;BMP280;36277;32.852;-116.998;2023-11-19T11:13:37;100421.75;;;24.17
45701;BMP280;36277;32.852;-116.998;2023-11-19T11:16:08;100421.91;;;24.15
45701;BMP280;36277;32.852;-116.998;2023-11-19T11:18:34;100410.88;;;24.15
45701;BMP280;36277;32.852;-116.998;2023-11-19T11:21:07;100405.56;;;24.14
45701;BMP280;36277;32.852;-116.998;2023-11-19T11:28:53;100408.69;;;24.11
45701;BMP280;36277;32.852;-116.998;2023-11-19T11:37:28;100411.47;;;24.11
45701;BMP280;36277;32.852;-116.998;2023-11-19T11:39:58;100413.25;;;24.04
45701;BMP280;36277;32.852;-116.998;2023-11-19T11:45:10;100419.44;;;24.06
45701;BMP280;36277;32.852;-116.998;2023-11-19T11:50:16;100417.72;;;24.05
45701;BMP280;36277;32.852;-116.998;2023-11-19T11:55:53;100417.03;;;24.03
45701;BMP280;36277;32.852;-116.998;2023-11-19T11:58:30;100407.06;;;24.02
45701;BMP280;36277;32.852;-116.998;2023-11-19T12:01:01;100414.28;;;24.03
45701;BMP280;36277;32.852;-116.998;2023-11-19T12:03:29;100407.63;;;23.98
45701;BMP280;36277;32.852;-116.998;2023-11-19T12:05:56;100415.91;;;23.98
45701;BMP280;36277;32.852;-116.998;2023-11-19T12:08:29;100423.91;;;24.07
45701;BMP280;36277;32.852;-116.998;2023-11-19T12:10:57;100435.00;;;23.99
45701;BMP280;36277;32.852;-116.998;2023-11-19T12:13:47;100433.22;;;24.06
45701;BMP280;36277;32.852;-116.998;2023-11-19T12:16:14;100439.00;;;23.97
45701;BMP280;36277;32.852;-116.998;2023-11-19T12:18:41;100434.16;;;23.99
45701;BMP280;36277;32.852;-116.998;2023-11-19T12:21:08;100427.03;;;24.04
45701;BMP280;36277;32.852;-116.998;2023-11-19T12:23:44;100429.78;;;24.04
45701;BMP280;36277;32.852;-116.998;2023-11-19T12:26:33;100429.41;;;24.07
45701;BMP280;36277;32.852;-116.998;2023-11-19T12:29:00;100434.72;;;23.94
45701;BMP280;36277;32.852;-116.998;2023-11-19T12:31:26;100443.84;;;23.95
45701;BMP280;36277;32.852;-116.998;2023-11-19T12:33:53;100442.31;;;23.92
45701;BMP280;36277;32.852;-116.998;2023-11-19T12:36:20;100435.66;;;24.01
45701;BMP280;36277;32.852;-116.998;2023-11-19T12:38:46;100438.63;;;24.00
45701;BMP280;36277;32.852;-116.998;2023-11-19T12:41:12;100447.06;;;23.98
45701;BMP280;36277;32.852;-116.998;2023-11-19T12:43:43;100448.09;;;23.97
45701;BMP280;36277;32.852;-116.998;2023-11-19T12:46:22;100437.75;;;23.99
45701;BMP280;36277;32.852;-116.998;2023-11-19T12:48:50;100438.31;;;23.95
45701;BMP280;36277;32.852;-116.998;2023-11-19T12:51:17;100436.91;;;23.99
45701;BMP280;36277;32.852;-116.998;2023-11-19T12:53:52;100433.59;;;24.03
45701;BMP280;36277;32.852;-116.998;2023-11-19T12:56:23;100440.75;;;23.90
45701;BMP280;36277;32.852;-116.998;2023-11-19T12:58:50;100439.34;;;23.94
45701;BMP280;36277;32.852;-116.998;2023-11-19T13:01:20;100439.34;;;23.94
45701;BMP280;36277;32.852;-116.998;2023-11-19T13:03:47;100449.91;;;23.90
45701;BMP280;36277;32.852;-116.998;2023-11-19T13:06:17;100447.16;;;23.90
45701;BMP280;36277;32.852;-116.998;2023-11-19T13:08:47;100456.09;;;23.92
45701;BMP280;36277;32.852;-116.998;2023-11-19T13:11:32;100458.50;;;23.95
45701;BMP280;36277;32.852;-116.998;2023-11-19T13:14:01;100460.75;;;23.92
45701;BMP280;36277;32.852;-116.998;2023-11-19T13:16:30;100459.22;;;23.89
45701;BMP280;36277;32.852;-116.998;2023-11-19T13:18:57;100465.41;;;23.91
45701;BMP280;36277;32.852;-116.998;2023-11-19T13:21:25;100474.72;;;23.90
45701;BMP280;36277;32.852;-116.998;2023-11-19T13:23:52;100475.75;;;23.89
45701;BMP280;36277;32.852;-116.998;2023-11-19T13:26:18;100477.84;;;23.87
45701;BMP280;36277;32.852;-116.998;2023-11-19T13:28:44;100471.97;;;23.90
45701;BMP280;36277;32.852;-116.998;2023-11-19T13:31:12;100467.50;;;23.89
45701;BMP280;36277;32.852;-116.998;2023-11-19T13:33:38;100472.63;;;23.92
45701;BMP280;36277;32.852;-116.998;2023-11-19T13:36:05;100464.00;;;23.95
45701;BMP280;36277;32.852;-116.998;2023-11-19T13:38:33;100470.56;;;23.94
45701;BMP280;36277;32.852;-116.998;2023-11-19T13:41:01;100473.84;;;23.90
45701;BMP280;36277;32.852;-116.998;2023-11-19T13:43:28;100484.19;;;23.88
45701;BMP280;36277;32.852;-116.998;2023-11-19T13:45:55;100488.50;;;23.90